• Join FlightAware (Why Join?)
  • Login
  • US Flag 
08:59AM EDT


 

Airport Tracker/Info


-or-


 

Live Flight TrackerFlight Track Log ✈ N700MX ✈ 17-Nov-2013 ✈ KCMA - KSGU

Flight Track Log - Related Links

Times and Time Zones

All times are in EST time to prevent confusion due to time zone crossing. See the N700MX flight status page for this flight to view local times or setup timezone preferences in your user account.

Time Position Orientation Groundspeed Altitude Reporting Facility
EST Latitude Longitude Course Direction KTS MPH feet Rate Location/Type
07:18PM 34.2769 -119.0200 57° Northeast 162 186 4,700  Level Los Angeles Center
07:19PM 34.2950 -118.9717 66° East 160 184 6,000 1,200 Climbing Los Angeles Center
07:20PM 34.3164 -118.9178 64° Northeast 171 197 7,200 1,200 Climbing Los Angeles Center
07:21PM 34.3392 -118.8550 66° East 169 194 8,500 1,080 Climbing Los Angeles Center
07:22PM 34.3611 -118.7983 65° Northeast 182 209 9,500 1,080 Climbing Los Angeles Center
07:23PM 34.4880 -118.5894 57° Northeast  Level Estimated
07:23PM 34.3828 -118.7408 65° Northeast 187 215 10,800  Level Los Angeles Center
07:24PM 34.4053 -118.6789 66° East 191 220 11,900 1,020 Climbing Los Angeles Center
07:25PM 34.4258 -118.6231 66° East 191 220 13,000 1,080 Climbing Los Angeles Center
07:26PM 34.4475 -118.5647 66° East 190 219 14,200 1,140 Climbing Los Angeles Center
07:27PM 34.4725 -118.4969 66° East 186 214 15,400 960 Climbing Los Angeles Center
07:28PM 34.4942 -118.4389 66° East 191 220 16,300 780 Climbing Los Angeles Center
07:29PM 34.5153 -118.3767 68° East 199 229 17,100 540 Climbing Los Angeles Center
07:30PM 34.5331 -118.3069 73° East 214 246 17,500 180 Climbing Los Angeles Center
07:31PM 34.5531 -118.2267 73° East 244 281 17,500  Level Los Angeles Center
07:32PM 34.5767 -118.1344 73° East 259 298 17,500  Level Los Angeles Center
07:33PM 34.5983 -118.0519 72° East 258 297 17,500  Level Los Angeles Center
07:34PM 34.6192 -117.9697 73° East 256 295 17,500  Level Los Angeles Center
07:35PM 34.6400 -117.8875 73° East 258 297 17,500  Level Los Angeles Center
07:36PM 34.6647 -117.7881 73° East 257 296 17,500  Level Los Angeles Center
07:37PM 34.6858 -117.7058 73° East 256 295 17,500  Level Los Angeles Center
07:38PM 34.7067 -117.6225 73° East 259 298 17,500  Level Los Angeles Center
07:39PM 34.7272 -117.5397 73° East 259 298 17,500  Level Los Angeles Center
07:40PM 34.7472 -117.4572 74° East 257 296 17,500  Level Los Angeles Center
07:41PM 34.7722 -117.3583 73° East 257 296 17,500  Level Los Angeles Center
07:43PM 34.7928 -117.2758 73° East 257 296 17,500  Level Los Angeles Center
07:44PM 34.8133 -117.1925 73° East 257 296 17,500  Level Los Angeles Center
07:45PM 34.8336 -117.1086 74° East 259 298 17,500  Level Los Angeles Center
07:46PM 34.8539 -117.0253 73° East 259 298 17,500  Level Los Angeles Center
07:47PM 34.8789 -116.9242 73° East 260 299 17,500  Level Los Angeles Center
07:48PM 34.8997 -116.8408 73° East 259 298 17,500  Level Los Angeles Center
07:49PM 34.9194 -116.7575 74° East 259 298 17,500  Level Los Angeles Center
07:50PM 34.9392 -116.6725 74° East 259 298 17,500  Level Los Angeles Center
07:51PM 34.9592 -116.5889 74° East 259 298 17,500  Level Los Angeles Center
07:52PM 35.0031 -116.5228 51° Northeast 261 300 17,500  Level Los Angeles Center
07:53PM 35.0567 -116.4419 51° Northeast 257 296 17,500  Level Los Angeles Center
07:54PM 35.1028 -116.3778 49° Northeast 255 293 17,500  Level Los Angeles Center
07:55PM 35.1467 -116.3136 50° Northeast 252 290 17,500  Level Los Angeles Center
07:56PM 35.1911 -116.2492 50° Northeast 249 287 17,500  Level Los Angeles Center
07:57PM 35.2367 -116.1858 49° Northeast 249 287 17,500  Level Los Angeles Center
07:58PM 35.2903 -116.1086 50° Northeast 248 285 17,500  Level Los Angeles Center
07:59PM 35.3344 -116.0458 49° Northeast 246 283 17,500  Level Los Angeles Center
08:00PM 35.3778 -115.9814 50° Northeast 246 283 17,500  Level Los Angeles Center
08:01PM 35.4228 -115.9183 49° Northeast 246 283 17,500  Level Los Angeles Center
08:02PM 35.4583 -115.8686 49° Northeast 244 281 17,500  Level Los Angeles Center
08:02PM 35.4667 -115.8553 52° Northeast 245 282 17,500  Level Los Angeles Center
08:03PM 35.5200 -115.7831 48° Northeast 247 284 17,500  Level Los Angeles Center
08:03PM 35.5281 -115.7653 61° Northeast 245 282 17,500  Level Los Angeles Center
08:04PM 35.5611 -115.7225 46° Northeast 245 282 17,500  Level Los Angeles Center
08:04PM 35.5731 -115.7011 56° Northeast 247 284 17,500  Level Los Angeles Center
08:05PM 35.6164 -115.6381 50° Northeast 245 282 17,500  Level Los Angeles Center
08:06PM 35.6533 -115.5897 47° Northeast 245 282 17,500  Level Los Angeles Center
08:07PM 35.6606 -115.5744 60° Northeast 245 282 17,500  Level Los Angeles Center
08:07PM 35.6978 -115.5250 47° Northeast 244 281 17,500  Level Los Angeles Center
08:08PM 35.7036 -115.5108 63° Northeast 244 281 17,500  Level Los Angeles Center
08:08PM 35.7400 -115.4611 48° Northeast 246 283 17,500  Level Los Angeles Center
08:09PM 35.7567 -115.4347 52° Northeast 250 288 17,500  Level Los Angeles Center
08:09PM 35.7844 -115.3964 48° Northeast 245 282 17,500  Level Los Angeles Center
08:10PM 35.8006 -115.3708 52° Northeast 246 283 17,500  Level Los Angeles Center
08:10PM 35.8286 -115.3317 49° Northeast 247 284 17,500  Level Los Angeles Center
08:11PM 35.8553 -115.2917 51° Northeast 247 284 17,500  Level Los Angeles Center
08:11PM 35.8700 -115.2731 46° Northeast 247 284 17,500  Level Los Angeles Center
08:12PM 35.9028 -115.2222 51° Northeast 247 284 17,500  Level Los Angeles Center
08:12PM 35.9156 -115.2050 48° Northeast 247 284 17,500  Level Los Angeles Center
08:13PM 35.9469 -115.1581 50° Northeast 246 283 17,500  Level Los Angeles Center
08:13PM 35.9628 -115.1339 51° Northeast 247 284 17,500  Level Los Angeles Center
08:14PM 35.9936 -115.0889 50° Northeast 246 283 17,500  Level Los Angeles Center
08:14PM 36.0089 -115.0681 48° Northeast 247 284 17,500  Level Los Angeles Center
08:15PM 36.0372 -115.0256 50° Northeast 246 283 17,500  Level Los Angeles Center
08:15PM 36.0525 -115.0003 53° Northeast 247 284 17,500  Level Los Angeles Center
08:16PM 36.0844 -114.9544 49° Northeast 249 287 17,500  Level Los Angeles Center
08:16PM 36.0967 -114.9353 52° Northeast 250 288 17,500  Level Los Angeles Center
08:17PM 36.1275 -114.8911 49° Northeast 247 284 17,500  Level Los Angeles Center
08:17PM 36.1475 -114.8622 49° Northeast 250 288 17,500  Level Los Angeles Center
08:18PM 36.1700 -114.8225 55° Northeast 250 288 17,500  Level Los Angeles Center
08:18PM 36.1814 -114.8003 58° Northeast 251 289 17,500  Level Los Angeles Center
08:19PM 36.2081 -114.7511 56° Northeast 250 288 17,500  Level Los Angeles Center
08:20PM 36.2528 -114.6622 58° Northeast 253 291 17,500  Level Los Angeles Center
08:21PM 36.2975 -114.5747 58° Northeast 252 290 17,500 -360 Level Los Angeles Center
08:22PM 36.3353 -114.4978 59° Northeast 258 297 16,800 -720 Descending Los Angeles Center
08:23PM 36.3778 -114.4183 56° Northeast 271 312 16,100 -780 Descending Los Angeles Center
08:24PM 36.4186 -114.3372 58° Northeast 276 318 15,300 -780 Descending Los Angeles Center
08:26PM 36.4608 -114.2539 58° Northeast 282 325 14,600 -720 Descending Los Angeles Center
08:27PM 36.5039 -114.1706 57° Northeast 285 328 13,900 -720 Descending Los Angeles Center
08:28PM 36.5456 -114.0833 59° Northeast 289 333 13,200 -780 Descending Los Angeles Center
08:29PM 36.5958 -113.9847 58° Northeast 285 328 12,300 -780 Descending Los Angeles Center
08:30PM 36.6358 -113.9050 58° Northeast 276 318 11,600 -720 Descending Los Angeles Center
08:31PM 36.6756 -113.8253 58° Northeast 273 314 10,900 -720 Descending Los Angeles Center